Time;durP1;ratioP1;P1;durP2;ratioP2;P2;SDS_P1;SDS_P2;PMS_P1;PMS_P2;Temp;Humidity;BMP_temperature;BMP_pressure;BME280_temperature;BME280_humidity;BME280_pressure;Samples;Min_cycle;Max_cycle;Signal;HPM_P1;HPM_P2
2022/06/27 00:01:20;;;;;;;3.95;3.30;;;;;;;23.30;45.83;100917.21;1666024;83;20911;-80
2022/06/27 00:03:54;;;;;;;3.60;3.27;;;;;;;23.28;45.86;100916.94;1664933;83;21125;-80
2022/06/27 00:06:20;;;;;;;3.53;2.97;;;;;;;23.22;45.96;100914.21;1675096;83;21089;-80
2022/06/27 00:08:49;;;;;;;6.53;3.37;;;;;;;23.18;46.08;100915.83;1660809;83;21001;-80
2022/06/27 00:11:18;;;;;;;4.35;3.70;;;;;;;23.16;46.09;100912.44;1667034;84;21140;-80
2022/06/27 00:13:45;;;;;;;8.43;3.40;;;;;;;23.09;46.17;100913.30;1670518;83;21063;-80
2022/06/27 00:16:12;;;;;;;6.47;3.52;;;;;;;23.05;46.24;100911.80;1674564;83;21078;-80
2022/06/27 00:18:44;;;;;;;8.20;3.30;;;;;;;22.98;46.30;100907.38;1676684;84;21301;-80
2022/06/27 00:21:11;;;;;;;11.00;3.90;;;;;;;22.91;46.43;100915.77;1669231;83;21063;-80
2022/06/27 00:23:37;;;;;;;8.43;3.57;;;;;;;22.88;46.50;100915.96;1670643;83;21057;-80
2022/06/27 00:26:03;;;;;;;3.90;2.83;;;;;;;22.88;46.57;100920.77;1679013;84;21254;-80
2022/06/27 00:28:29;;;;;;;4.17;3.47;;;;;;;22.86;46.62;100913.45;1655173;86;21620;-80
2022/06/27 00:30:55;;;;;;;7.17;3.50;;;;;;;22.77;46.71;100907.39;1654300;84;21558;-80
2022/06/27 00:33:21;;;;;;;3.95;3.35;;;;;;;22.81;46.77;100917.31;1660973;84;21081;-80
2022/06/27 00:35:55;;;;;;;4.75;3.58;;;;;;;22.76;46.84;100916.25;1655325;84;21109;-80
2022/06/27 00:38:21;;;;;;;5.13;3.73;;;;;;;22.72;46.92;100914.73;1650343;84;21095;-81
2022/06/27 00:40:47;;;;;;;4.20;3.83;;;;;;;22.69;47.03;100918.88;1622383;85;21409;-80
2022/06/27 00:43:13;;;;;;;4.63;3.80;;;;;;;22.62;47.08;100916.25;1654264;84;21066;-80
2022/06/27 00:45:39;;;;;;;5.07;3.60;;;;;;;22.55;47.18;100913.13;1655424;84;22144;-80
2022/06/27 00:48:06;;;;;;;4.12;3.42;;;;;;;22.48;47.29;100909.65;1655529;84;21058;-81
2022/06/27 00:50:36;;;;;;;6.58;3.70;;;;;;;22.44;47.40;100915.11;1654900;85;21054;-81
2022/06/27 00:53:02;;;;;;;3.67;3.10;;;;;;;22.36;47.46;100913.41;1653298;84;21511;-81
2022/06/27 00:55:30;;;;;;;5.65;3.52;;;;;;;22.34;47.58;100917.09;1650474;86;21079;-81
2022/06/27 00:57:56;;;;;;;3.60;3.30;;;;;;;22.29;47.64;100917.38;1655339;85;20966;-81
2022/06/27 01:00:22;;;;;;;5.20;3.43;;;;;;;22.27;47.78;100910.03;1653988;84;21439;-81
2022/06/27 01:02:48;;;;;;;5.92;3.55;;;;;;;22.28;47.83;100910.88;1648444;85;21487;-80
2022/06/27 01:05:17;;;;;;;4.00;3.70;;;;;;;22.23;47.89;100903.25;1655722;84;20934;-80
2022/06/27 01:07:43;;;;;;;3.85;3.30;;;;;;;22.15;48.02;100902.86;1663337;83;20927;-80
2022/06/27 01:10:09;;;;;;;3.97;3.50;;;;;;;22.07;48.14;100904.63;1651898;84;20976;-79
2022/06/27 01:12:42;;;;;;;3.87;3.58;;;;;;;22.08;48.15;100905.48;1653885;84;20971;-79
2022/06/27 01:15:11;;;;;;;6.62;3.35;;;;;;;22.01;48.21;100903.67;1652892;84;21000;-79
2022/06/27 01:17:38;;;;;;;7.00;3.52;;;;;;;21.97;48.34;100901.27;1657406;84;20903;-79
2022/06/27 01:20:06;;;;;;;3.83;3.52;;;;;;;21.97;48.45;100901.27;1652545;84;21320;-79
2022/06/27 01:22:33;;;;;;;5.65;3.90;;;;;;;21.97;48.51;100902.13;1655974;85;20947;-79
2022/06/27 01:24:59;;;;;;;4.25;3.85;;;;;;;21.98;48.56;100906.92;1670204;84;20984;-79
2022/06/27 01:27:25;;;;;;;4.60;3.60;;;;;;;21.98;48.64;100905.14;1649021;84;20928;-79
2022/06/27 01:29:51;;;;;;;6.47;4.05;;;;;;;22.01;48.67;100906.30;1655065;85;20927;-79
2022/06/27 01:32:17;;;;;;;6.23;4.00;;;;;;;22.02;48.70;100904.05;1663171;84;20889;-79
2022/06/27 01:34:43;;;;;;;4.87;3.70;;;;;;;22.05;48.78;100899.08;1668882;84;20943;-79
2022/06/27 01:37:09;;;;;;;4.83;3.97;;;;;;;22.05;48.82;100893.80;1654594;85;20915;-79
2022/06/27 01:39:35;;;;;;;3.83;3.57;;;;;;;22.03;48.91;100904.90;1661208;84;21546;-80
2022/06/27 01:42:04;;;;;;;4.93;3.50;;;;;;;22.05;48.98;100904.34;1656687;84;20943;-80
2022/06/27 01:44:32;;;;;;;4.20;3.80;;;;;;;22.05;49.02;100898.60;1663721;84;20955;-80
2022/06/27 01:47:10;;;;;;;5.42;3.52;;;;;;;22.05;49.04;100895.13;1653164;85;20938;-80
2022/06/27 01:49:39;;;;;;;3.75;3.45;;;;;;;22.04;49.16;100893.42;1645800;85;20966;-80
2022/06/27 01:52:06;;;;;;;;;;;;;;;22.04;49.18;100889.01;1647358;85;20927;-80
2022/06/27 01:54:34;;;;;;;4.12;3.72;;;;;;;22.04;49.47;100890.80;1664927;85;20096;-79
2022/06/27 01:57:01;;;;;;;8.53;4.17;;;;;;;21.96;49.25;100890.36;1647648;87;20923;-79
2022/06/27 01:59:30;;;;;;;8.60;3.80;;;;;;;21.90;49.32;100894.67;1628343;86;21735;-79
2022/06/27 02:01:58;;;;;;;4.72;3.75;;;;;;;21.87;49.47;100892.22;1647172;86;20962;-79
2022/06/27 02:04:26;;;;;;;4.62;3.83;;;;;;;21.86;49.51;100890.52;1647775;85;21113;-79
2022/06/27 02:06:53;;;;;;;4.40;4.00;;;;;;;21.84;49.58;100895.03;1650396;85;20911;-79
2022/06/27 02:09:19;;;;;;;5.53;3.70;;;;;;;21.81;49.67;100890.82;1645204;85;20911;-79
2022/06/27 02:11:47;;;;;;;4.60;3.70;;;;;;;21.80;49.72;100889.97;1647381;85;20934;-79
2022/06/27 02:14:13;;;;;;;5.28;3.67;;;;;;;21.77;49.75;100894.10;1685236;83;21669;-79
2022/06/27 02:16:42;;;;;;;4.03;3.55;;;;;;;21.70;49.86;100893.23;1675924;84;20993;-79
2022/06/27 02:19:13;;;;;;;4.30;3.87;;;;;;;21.69;49.96;100895.48;1635547;86;21050;-79
2022/06/27 02:21:41;;;;;;;4.33;3.80;;;;;;;21.63;50.03;100896.68;1658095;86;21154;-80
2022/06/27 02:24:09;;;;;;;7.62;4.40;;;;;;;21.59;50.13;100895.63;1641173;86;21502;-80
2022/06/27 02:26:36;;;;;;;6.30;4.10;;;;;;;21.54;50.22;100893.72;1653371;86;21115;-80
2022/06/27 02:29:03;;;;;;;4.80;3.90;;;;;;;21.51;50.30;100893.43;1595115;88;21499;-80
2022/06/27 02:31:29;;;;;;;5.08;3.90;;;;;;;21.51;50.31;100891.27;1643721;86;20931;-79
2022/06/27 02:33:58;;;;;;;4.62;3.92;;;;;;;21.47;50.39;100886.64;1640665;86;20967;-79
2022/06/27 02:36:37;;;;;;;7.37;4.20;;;;;;;21.45;50.49;100891.99;1651719;85;21495;-79
2022/06/27 02:39:12;;;;;;;5.22;3.85;;;;;;;21.42;50.53;100897.89;1634161;85;20926;-80
2022/06/27 02:41:40;;;;;;;9.75;3.83;;;;;;;21.34;50.59;100900.95;1649109;86;20967;-80
2022/06/27 02:44:10;;;;;;;4.62;4.22;;;;;;;21.26;50.70;100902.35;1649731;85;20935;-80
2022/06/27 02:46:38;;;;;;;4.78;3.65;;;;;;;21.21;50.83;100904.36;1646380;85;20974;-79
2022/06/27 02:49:05;;;;;;;8.58;3.75;;;;;;;21.18;50.94;100900.58;1649329;85;20919;-79
2022/06/27 02:51:37;;;;;;;10.00;4.00;;;;;;;21.16;50.98;100898.03;1648385;85;21423;-79
2022/06/27 02:54:10;;;;;;;4.30;3.95;;;;;;;21.13;51.14;100904.78;1649464;86;20962;-79
2022/06/27 02:56:44;;;;;;;4.65;4.05;;;;;;;21.15;51.15;100904.23;1649912;85;20966;-79
2022/06/27 02:59:16;;;;;;;4.25;3.90;;;;;;;21.19;51.21;100912.80;1648159;85;20963;-79
2022/06/27 03:01:43;;;;;;;4.72;4.33;;;;;;;21.17;51.23;100912.88;1649724;85;20926;-79
2022/06/27 03:04:10;;;;;;;7.08;4.30;;;;;;;21.15;51.29;100910.33;1649819;85;20950;-80
2022/06/27 03:06:37;;;;;;;4.80;3.87;;;;;;;21.12;51.42;100915.76;1643348;85;21046;-80
2022/06/27 03:09:03;;;;;;;6.40;4.22;;;;;;;21.11;51.44;100921.11;1615029;88;21361;-80
2022/06/27 03:11:29;;;;;;;5.03;4.23;;;;;;;21.05;51.56;100922.28;1597383;87;20936;-80
2022/06/27 03:13:55;;;;;;;6.60;4.27;;;;;;;21.04;51.66;100923.22;1641037;85;20903;-80
2022/06/27 03:16:23;;;;;;;8.75;4.35;;;;;;;21.04;51.76;100923.22;1641127;86;20968;-80
2022/06/27 03:18:50;;;;;;;4.37;4.08;;;;;;;21.05;51.82;100926.23;1644288;85;20952;-80
2022/06/27 03:21:17;;;;;;;4.30;3.90;;;;;;;20.99;51.87;100928.34;1638511;87;21348;-79
2022/06/27 03:23:47;;;;;;;;;;;;;;;20.98;52.06;100936.70;1643167;86;20971;-80
2022/06/27 03:26:18;;;;;;;4.95;4.55;;;;;;;21.02;52.53;100926.40;1634309;86;20099;-80
2022/06/27 03:28:46;;;;;;;4.45;4.03;;;;;;;21.03;52.16;100921.98;1645897;85;21411;-80
2022/06/27 03:31:12;;;;;;;5.20;4.78;;;;;;;21.08;52.24;100923.44;1647138;85;20891;-80
2022/06/27 03:33:39;;;;;;;5.97;4.83;;;;;;;21.15;52.28;100929.20;1647701;85;21626;-80
2022/06/27 03:36:06;;;;;;;5.05;4.67;;;;;;;21.17;52.39;100931.75;1647861;86;20887;-80
2022/06/27 03:38:32;;;;;;;;;;;;;;;21.20;52.49;100939.48;1655336;85;20907;-80
2022/06/27 03:40:59;;;;;;;5.22;4.35;;;;;;;21.24;52.89;100938.41;1652317;86;20123;-80
2022/06/27 03:43:26;;;;;;;4.50;4.20;;;;;;;21.25;52.57;100939.64;1616533;87;21373;-80
2022/06/27 03:45:55;;;;;;;5.78;4.40;;;;;;;21.30;52.70;100945.50;1614222;87;21346;-80
2022/06/27 03:51:06;;;;;;;6.22;4.10;;;;;;;21.37;52.88;100948.61;1645886;85;20949;-80
2022/06/27 03:53:33;;;;;;;6.03;5.00;;;;;;;21.42;52.91;100959.25;1625505;86;20927;-80
2022/06/27 03:55:59;;;;;;;4.95;4.53;;;;;;;21.43;52.93;100954.84;1647602;86;20923;-80
2022/06/27 03:58:33;;;;;;;4.22;3.92;;;;;;;21.41;53.04;100955.39;1649495;85;20976;-80
2022/06/27 04:01:01;;;;;;;4.80;4.40;;;;;;;21.39;53.14;100952.00;1647716;85;20945;-80
2022/06/27 04:03:27;;;;;;;5.62;4.20;;;;;;;21.36;53.21;100948.23;1647196;85;20923;-80
2022/06/27 04:05:53;;;;;;;4.90;4.12;;;;;;;21.40;53.37;100947.97;1646666;85;20926;-81
2022/06/27 04:08:19;;;;;;;4.47;4.07;;;;;;;21.47;53.44;100948.48;1621371;86;20906;-80
2022/06/27 04:10:45;;;;;;;7.33;4.23;;;;;;;21.59;53.51;100954.84;1610620;89;21705;-80
2022/06/27 04:13:11;;;;;;;5.42;4.42;;;;;;;21.74;53.60;100949.55;1652008;85;20918;-80
2022/06/27 04:15:40;;;;;;;10.75;4.20;;;;;;;22.00;53.63;100955.08;1644508;85;21071;-80
2022/06/27 04:18:06;;;;;;;6.95;4.20;;;;;;;22.26;53.62;100947.01;1647675;86;20923;-80
2022/06/27 04:20:33;;;;;;;7.05;4.67;;;;;;;22.43;53.50;100946.81;1648445;85;20935;-80
2022/06/27 04:23:00;;;;;;;6.35;4.15;;;;;;;22.50;53.45;100936.29;1648403;85;20946;-80
2022/06/27 04:25:26;;;;;;;5.37;4.87;;;;;;;22.60;53.54;100933.95;1648098;85;21262;-80
2022/06/27 04:27:53;;;;;;;6.45;4.42;;;;;;;22.68;53.49;100930.38;1646502;85;20935;-80
2022/06/27 04:30:19;;;;;;;11.47;4.70;;;;;;;22.78;53.53;100931.06;1647361;85;20935;-80
2022/06/27 04:32:48;;;;;;;6.67;4.40;;;;;;;22.91;53.56;100936.39;1650422;85;20975;-80
2022/06/27 04:35:15;;;;;;;4.97;4.50;;;;;;;23.02;53.49;100939.21;1647792;85;20935;-80
2022/06/27 04:37:43;;;;;;;10.63;4.72;;;;;;;23.00;53.51;100942.41;1647682;85;20922;-80
2022/06/27 04:40:11;;;;;;;6.62;4.28;;;;;;;23.09;53.52;100946.27;1647371;84;20930;-80
2022/06/27 04:42:38;;;;;;;4.45;4.08;;;;;;;23.19;53.53;100942.58;1653079;85;21037;-80
2022/06/27 04:45:12;;;;;;;;;;;;;;;23.28;53.46;100952.08;1649576;85;20895;-80
2022/06/27 04:47:33;;;;;;;5.37;4.12;;;;;;;23.36;53.50;100958.20;1651364;86;20157;-80
2022/06/27 04:50:00;;;;;;;5.20;4.43;;;;;;;23.39;53.38;100958.84;1648651;85;20919;-80
2022/06/27 04:52:26;;;;;;;7.90;4.33;;;;;;;23.48;53.34;100961.81;1647364;85;20923;-80
2022/06/27 04:54:54;;;;;;;5.73;4.47;;;;;;;23.56;53.29;100956.45;1656055;85;20959;-80
2022/06/27 04:57:21;;;;;;;8.03;4.40;;;;;;;23.62;53.23;100953.41;1645557;85;20931;-80
2022/06/27 04:59:48;;;;;;;5.00;4.55;;;;;;;23.75;53.20;100952.14;1646920;85;21467;-80
2022/06/27 05:02:14;;;;;;;7.92;4.40;;;;;;;23.94;53.20;100953.06;1646789;86;21094;-80
2022/06/27 05:04:40;;;;;;;7.87;4.73;;;;;;;24.19;53.13;100949.16;1625028;87;21065;-80
2022/06/27 05:07:06;;;;;;;4.37;4.00;;;;;;;24.46;52.96;100954.38;1642540;85;21707;-80
2022/06/27 05:09:34;;;;;;;5.45;4.28;;;;;;;24.87;52.90;100951.52;1648759;85;22188;-80
2022/06/27 05:12:01;;;;;;;8.23;4.40;;;;;;;25.27;52.66;100950.85;1645833;85;22246;-80
2022/06/27 05:14:26;;;;;;;5.72;3.58;;;;;;;25.68;52.51;100952.30;1645735;85;20975;-80
2022/06/27 05:16:53;;;;;;;10.28;4.20;;;;;;;26.11;52.36;100951.72;1642176;85;21478;-80
2022/06/27 05:19:19;;;;;;;4.97;4.30;;;;;;;26.51;52.10;100956.19;1644410;85;21445;-80
2022/06/27 05:21:46;;;;;;;13.33;4.13;;;;;;;26.94;51.92;100957.62;1645436;85;21109;-80
2022/06/27 05:24:12;;;;;;;8.18;3.77;;;;;;;27.35;51.51;100956.98;1646604;85;23004;-80
2022/06/27 05:26:39;;;;;;;4.85;4.08;;;;;;;27.62;51.42;100960.06;1643600;85;21477;-81
2022/06/27 05:29:05;;;;;;;;;;;;;;;27.97;51.32;100957.63;1644493;85;21617;-80
2022/06/27 05:31:32;;;;;;;6.67;3.72;;;;;;;28.45;50.60;100965.11;1635409;85;26368;-80
2022/06/27 05:33:58;;;;;;;7.70;4.03;;;;;;;28.85;50.89;100966.52;1651343;85;20991;-80
2022/06/27 05:36:24;;;;;;;4.33;3.90;;;;;;;29.28;50.56;100966.22;1641852;86;21439;-80
2022/06/27 05:38:50;;;;;;;10.78;4.20;;;;;;;29.62;50.15;100968.91;1648540;86;20971;-80
2022/06/27 05:41:17;;;;;;;4.37;3.20;;;;;;;29.90;49.84;100966.37;1645198;86;20980;-80
2022/06/27 05:43:43;;;;;;;7.10;4.35;;;;;;;30.18;49.54;100976.18;1645923;85;21455;-80
2022/06/27 05:46:09;;;;;;;5.17;3.75;;;;;;;30.50;49.37;100973.17;1645707;84;20998;-80
2022/06/27 05:48:37;;;;;;;5.12;4.00;;;;;;;30.84;49.02;100976.16;1635083;85;21453;-80
2022/06/27 05:51:03;;;;;;;4.65;3.80;;;;;;;31.18;48.58;100974.28;1635278;85;21077;-80
2022/06/27 05:53:30;;;;;;;5.40;3.70;;;;;;;31.54;48.31;100969.81;1650560;85;21372;-80
2022/06/27 05:55:56;;;;;;;6.50;4.00;;;;;;;31.82;47.98;100970.59;1653115;85;21532;-80
2022/06/27 05:58:22;;;;;;;4.50;3.85;;;;;;;32.11;47.53;100973.86;1645423;85;21599;-80
2022/06/27 06:00:48;;;;;;;7.20;3.77;;;;;;;32.48;47.23;100974.12;1622198;85;21080;-78
2022/06/27 06:03:13;;;;;;;6.40;4.00;;;;;;;32.70;46.45;100981.63;1644118;85;20879;-78
2022/06/27 06:05:41;;;;;;;5.62;3.80;;;;;;;32.89;46.29;100981.39;1633328;85;21834;-78
2022/06/27 06:08:08;;;;;;;8.40;4.05;;;;;;;33.15;45.77;100974.64;1667335;85;21629;-79
2022/06/27 06:10:35;;;;;;;6.03;3.83;;;;;;;33.38;45.83;100973.55;1645074;85;21325;-79
2022/06/27 06:13:02;;;;;;;6.78;3.85;;;;;;;33.90;45.29;100975.98;1644713;85;21507;-79
2022/06/27 06:15:31;;;;;;;5.58;3.33;;;;;;;34.42;44.93;100972.93;1643111;85;21529;-78
2022/06/27 06:18:01;;;;;;;4.15;3.25;;;;;;;34.98;44.08;100975.95;1637368;86;21499;-78
2022/06/27 06:20:28;;;;;;;5.17;3.25;;;;;;;35.46;43.52;100975.38;1639826;85;21423;-78
2022/06/27 06:22:55;;;;;;;5.40;3.20;;;;;;;36.14;42.96;100981.27;1641236;86;21530;-78
2022/06/27 06:25:22;;;;;;;3.62;3.33;;;;;;;36.73;42.05;100978.13;1644735;86;21380;-78
2022/06/27 06:27:49;;;;;;;5.08;3.27;;;;;;;37.26;41.45;100979.36;1645099;86;21455;-78
2022/06/27 06:30:19;;;;;;;4.45;3.35;;;;;;;37.77;40.81;100984.17;1646122;85;20930;-78
2022/06/27 06:32:44;;;;;;;5.30;3.27;;;;;;;38.15;40.22;100979.83;1648537;84;20951;-78
2022/06/27 06:35:10;;;;;;;8.98;3.12;;;;;;;38.51;39.72;100975.08;1649134;85;20970;-78
2022/06/27 06:37:39;;;;;;;;;;;;;;;38.84;38.90;100971.75;1648505;85;20915;-79
2022/06/27 06:40:04;;;;;;;7.12;2.83;;;;;;;38.99;34.81;100980.56;1643288;85;20134;-79
2022/06/27 06:42:39;;;;;;;3.98;3.12;;;;;;;39.24;38.33;100976.30;1648894;85;20946;-78
2022/06/27 06:45:07;;;;;;;3.20;2.90;;;;;;;39.67;37.80;100970.56;1647841;85;21568;-78
2022/06/27 06:47:34;;;;;;;4.97;3.25;;;;;;;39.98;36.91;100970.83;1648237;85;21565;-76
2022/06/27 06:50:00;;;;;;;3.52;3.15;;;;;;;40.37;36.31;100976.42;1647027;85;21602;-76
2022/06/27 06:52:30;;;;;;;5.50;3.17;;;;;;;40.66;35.79;100971.33;1646407;85;21015;-76
2022/06/27 06:54:54;;;;;;;4.90;3.10;;;;;;;41.00;35.10;100957.16;1641945;84;21133;-76
2022/06/27 06:57:20;;;;;;;;;;;;;;;41.23;34.65;100970.19;1647563;85;20953;-76
2022/06/27 06:59:48;;;;;;;4.62;2.58;;;;;;;41.44;34.23;100962.23;1643994;85;20484;-76
2022/06/27 07:02:15;;;;;;;3.40;2.83;;;;;;;41.62;33.85;100965.87;1646648;85;21057;-76
2022/06/27 07:04:41;;;;;;;5.17;2.80;;;;;;;41.83;33.52;100963.31;1648143;85;20993;-76
2022/06/27 07:07:07;;;;;;;3.00;2.70;;;;;;;42.08;32.75;100967.41;1628086;86;21408;-76
2022/06/27 07:09:32;;;;;;;;;;;;;;;42.24;32.22;100974.97;1621166;87;20970;-76
2022/06/27 07:12:02;;;;;;;6.33;2.85;;;;;;;42.03;32.16;100967.78;1620814;87;20260;-76
2022/06/27 07:14:28;;;;;;;10.45;3.45;;;;;;;41.91;31.43;100969.00;1621977;87;21010;-76
2022/06/27 07:16:55;;;;;;;6.58;2.45;;;;;;;41.98;31.16;100968.41;1611986;87;21133;-76
2022/06/27 07:19:29;;;;;;;5.17;2.80;;;;;;;42.29;30.57;100965.61;1623920;87;21129;-76
2022/06/27 07:21:55;;;;;;;4.30;2.95;;;;;;;42.57;30.12;100967.03;1624423;87;21081;-76
2022/06/27 07:24:21;;;;;;;3.58;2.90;;;;;;;42.54;29.44;100968.31;1634169;87;20947;-76
2022/06/27 07:26:53;;;;;;;5.92;2.90;;;;;;;42.49;28.95;100961.89;1620366;87;21151;-76
2022/06/27 07:29:19;;;;;;;;;;;;;;;42.49;28.40;100962.72;1646285;85;21053;-76
2022/06/27 07:31:45;;;;;;;8.98;4.05;;;;;;;42.59;28.26;100966.27;1643399;86;20185;-76
2022/06/27 07:34:11;;;;;;;;;;;;;;;42.75;28.37;100964.80;1646179;85;21085;-76
2022/06/27 07:36:38;;;;;;;7.30;3.00;;;;;;;42.94;28.22;100963.23;1643506;86;20254;-76
2022/06/27 07:39:05;;;;;;;3.00;2.50;;;;;;;43.06;27.81;100956.48;1645161;86;21070;-76
2022/06/27 07:41:32;;;;;;;4.05;2.70;;;;;;;42.57;27.22;100963.78;1640589;86;21546;-76
2022/06/27 07:44:00;;;;;;;3.52;2.85;;;;;;;41.95;26.81;100950.67;1642866;86;21050;-76
2022/06/27 07:46:27;;;;;;;4.12;2.17;;;;;;;41.36;26.74;100961.14;1650172;85;21060;-75
2022/06/27 07:48:53;;;;;;;7.90;3.20;;;;;;;40.55;26.36;100948.97;1643984;85;21130;-77
2022/06/27 07:51:20;;;;;;;55.03;5.17;;;;;;;39.82;26.34;100948.70;1646761;86;21078;-76
2022/06/27 07:53:48;;;;;;;;;;;;;;;39.20;26.35;100943.08;1644893;86;21102;-76
2022/06/27 07:56:17;;;;;;;7.47;2.72;;;;;;;38.92;26.60;100943.19;1646663;86;20113;-76
2022/06/27 07:58:45;;;;;;;3.72;2.42;;;;;;;38.87;26.60;100944.31;1642846;86;20923;-76
2022/06/27 08:01:15;;;;;;;4.85;2.50;;;;;;;39.05;26.46;100941.89;1644067;86;21486;-75
2022/06/27 08:03:44;;;;;;;6.60;2.95;;;;;;;39.06;26.35;100947.62;1648153;86;20919;-75
2022/06/27 08:06:24;;;;;;;3.20;2.60;;;;;;;39.10;26.22;100944.82;1645571;86;21075;-75
2022/06/27 08:08:55;;;;;;;4.47;2.62;;;;;;;39.06;26.14;100938.14;1650997;85;20919;-75
2022/06/27 08:11:25;;;;;;;3.52;2.42;;;;;;;38.63;26.17;100936.19;1627201;86;20892;-75
2022/06/27 08:13:55;;;;;;;2.60;2.40;;;;;;;38.50;25.93;100945.02;1640601;85;20982;-75
2022/06/27 08:16:25;;;;;;;5.55;2.70;;;;;;;38.31;26.11;100944.41;1640191;86;20947;-75
2022/06/27 08:18:52;;;;;;;4.17;2.58;;;;;;;38.40;26.12;100948.12;1654204;85;21379;-75
2022/06/27 08:21:23;;;;;;;2.40;2.20;;;;;;;38.50;25.88;100950.43;1656118;85;20988;-75
2022/06/27 08:23:51;;;;;;;3.12;2.22;;;;;;;38.50;25.82;100949.59;1647950;85;20930;-75
2022/06/27 08:26:18;;;;;;;3.92;2.52;;;;;;;38.73;25.82;100939.36;1653645;85;20930;-75
2022/06/27 08:28:48;;;;;;;3.22;2.62;;;;;;;38.92;25.73;100948.08;1646280;85;21081;-75
2022/06/27 08:31:16;;;;;;;5.22;2.50;;;;;;;39.13;25.76;100952.53;1641342;85;21093;-76
2022/06/27 08:33:44;;;;;;;5.53;3.02;;;;;;;39.14;25.77;100943.89;1630933;85;21140;-76
2022/06/27 08:36:12;;;;;;;5.78;2.72;;;;;;;39.37;25.94;100950.62;1620250;87;20928;-76
2022/06/27 08:38:50;;;;;;;3.47;2.50;;;;;;;39.55;25.79;100950.03;1656086;85;21010;-76
2022/06/27 08:41:23;;;;;;;6.65;3.62;;;;;;;39.70;25.63;100939.84;1648164;85;21069;-76
2022/06/27 08:43:55;;;;;;;3.25;2.47;;;;;;;39.87;25.55;100947.56;1663492;85;21592;-76
2022/06/27 08:46:25;;;;;;;7.75;3.00;;;;;;;40.02;25.33;100948.22;1658434;85;21065;-77
2022/06/27 08:48:51;;;;;;;5.03;3.10;;;;;;;39.96;25.49;100953.11;1647247;85;20989;-77
2022/06/27 08:51:19;;;;;;;10.15;3.02;;;;;;;39.72;25.25;100943.70;1621364;87;21109;-77
2022/06/27 08:53:46;;;;;;;5.47;2.80;;;;;;;39.43;25.49;100945.43;1657832;85;20956;-77
2022/06/27 08:56:16;;;;;;;4.92;2.87;;;;;;;39.37;24.73;100943.02;1658951;85;20934;-77
2022/06/27 08:58:46;;;;;;;7.75;3.42;;;;;;;38.93;25.22;100941.64;1655456;85;21367;-77
2022/06/27 09:01:11;;;;;;;5.20;2.55;;;;;;;38.50;25.36;100949.08;1630450;86;20898;-77
2022/06/27 09:03:37;;;;;;;6.67;2.65;;;;;;;38.17;25.61;100937.25;1624519;85;20908;-77
2022/06/27 09:06:05;;;;;;;;;;;;;;;38.26;25.67;100942.30;1649408;85;20963;-77
2022/06/27 09:08:36;;;;;;;5.72;2.75;;;;;;;38.31;25.63;100937.14;1640929;85;20134;-77
2022/06/27 09:11:04;;;;;;;8.55;3.72;;;;;;;37.98;25.47;100939.57;1611744;85;37860;-77
2022/06/27 09:13:32;;;;;;;3.27;2.98;;;;;;;37.42;25.68;100940.01;1652782;85;20914;-77
2022/06/27 09:16:05;;;;;;;6.40;3.37;;;;;;;36.85;25.71;100927.83;1645302;85;20926;-77
2022/06/27 09:18:34;;;;;;;3.92;2.98;;;;;;;36.26;26.03;100934.53;1622941;85;21087;-77
2022/06/27 09:21:09;;;;;;;3.60;3.30;;;;;;;35.79;26.21;100944.58;1619911;88;21094;-78
2022/06/27 09:23:50;;;;;;;4.03;2.70;;;;;;;35.28;26.27;100933.97;1653406;85;20942;-77
2022/06/27 09:26:27;;;;;;;3.15;2.83;;;;;;;34.67;26.45;100936.10;1654844;85;21637;-76
2022/06/27 09:29:14;;;;;;;4.65;3.20;;;;;;;34.30;26.82;100934.88;1652579;84;21065;-77
2022/06/27 09:31:45;;;;;;;2.87;2.67;;;;;;;34.08;27.10;100937.73;1645268;85;21096;-77
2022/06/27 09:34:25;;;;;;;5.05;2.83;;;;;;;33.90;27.23;100922.81;1654622;85;21148;-77
2022/06/27 09:36:54;;;;;;;3.00;2.62;;;;;;;33.70;27.33;100931.70;1643151;85;21611;-77
2022/06/27 09:39:32;;;;;;;4.42;2.87;;;;;;;33.48;27.62;100921.11;1642134;85;20963;-77
2022/06/27 09:42:03;;;;;;;5.33;3.00;;;;;;;33.19;27.68;100917.03;1646281;85;21165;-77
2022/06/27 09:44:35;;;;;;;3.00;2.60;;;;;;;32.91;27.86;100906.22;1649402;85;21076;-78
2022/06/27 09:47:13;;;;;;;4.58;2.90;;;;;;;32.87;28.20;100917.77;1646078;85;20994;-77
2022/06/27 09:49:43;;;;;;;5.87;3.12;;;;;;;32.87;28.28;100911.06;1645333;85;21002;-77
2022/06/27 09:52:15;;;;;;;5.12;2.85;;;;;;;32.73;28.44;100909.49;1648362;85;20967;-77
2022/06/27 09:54:44;;;;;;;5.25;3.50;;;;;;;32.71;28.49;100919.53;1628275;85;20998;-77
2022/06/27 09:57:12;;;;;;;3.33;2.77;;;;;;;32.62;28.50;100913.30;1651003;85;20978;-77
2022/06/27 09:59:39;;;;;;;5.25;2.70;;;;;;;32.68;28.62;100909.14;1644876;85;21510;-77
2022/06/27 10:02:06;;;;;;;5.80;3.12;;;;;;;32.64;28.75;100904.60;1644441;85;21567;-77
2022/06/27 10:04:37;;;;;;;5.22;2.98;;;;;;;32.50;28.81;100900.68;1648784;85;21017;-77
2022/06/27 10:07:07;;;;;;;7.22;3.10;;;;;;;32.50;29.39;100902.02;1650007;85;20974;-77
2022/06/27 10:09:35;;;;;;;3.22;2.70;;;;;;;32.47;29.24;100902.84;1649014;85;21025;-77
2022/06/27 10:12:27;;;;;;;3.10;2.83;;;;;;;32.38;29.19;100899.77;1616845;87;20926;-77
2022/06/27 10:15:14;;;;;;;3.40;2.92;;;;;;;32.39;29.28;100904.13;1647039;85;20975;-77
2022/06/27 10:17:47;;;;;;;3.80;2.80;;;;;;;32.25;29.21;100894.34;1644000;85;20922;-77
2022/06/27 10:20:21;;;;;;;7.30;2.83;;;;;;;32.36;29.49;100897.26;1647319;85;20969;-77
2022/06/27 10:23:08;;;;;;;3.25;2.95;;;;;;;32.43;29.48;100894.28;1644415;85;20926;-77
2022/06/27 10:25:37;;;;;;;5.80;2.60;;;;;;;32.42;29.53;100893.11;1659630;85;21511;-76
2022/06/27 10:28:15;;;;;;;4.08;2.85;;;;;;;32.48;29.67;100881.27;1639397;85;21113;-77
2022/06/27 10:30:52;;;;;;;4.35;2.98;;;;;;;32.50;29.58;100879.77;1644976;85;21549;-76
2022/06/27 10:33:24;;;;;;;;;;;;;;;32.49;29.74;100874.07;1652539;85;21521;-76
2022/06/27 10:36:15;;;;;;;9.23;2.95;;;;;;;32.48;29.94;100876.41;1649698;85;20261;-76
2022/06/27 10:38:50;;;;;;;9.53;3.50;;;;;;;32.58;29.83;100873.95;1659596;85;20961;-78
2022/06/27 10:41:28;;;;;;;5.12;3.10;;;;;;;32.72;29.92;100873.84;1646242;85;21066;-79
2022/06/27 10:43:56;;;;;;;3.42;2.80;;;;;;;32.82;29.93;100873.20;1643138;85;21121;-80
2022/06/27 10:46:28;;;;;;;3.05;2.77;;;;;;;32.84;29.81;100873.05;1613068;86;21085;-80
2022/06/27 10:48:57;;;;;;;3.62;3.27;;;;;;;32.83;29.85;100864.67;1606950;87;21078;-79
2022/06/27 10:51:34;;;;;;;2.90;2.60;;;;;;;32.89;29.91;100855.48;1632854;85;21101;-79
2022/06/27 10:54:11;;;;;;;5.42;3.17;;;;;;;32.98;29.63;100854.16;1635508;86;21137;-79
2022/06/27 10:56:53;;;;;;;4.70;3.10;;;;;;;33.02;29.75;100857.69;1648810;86;21085;-80
2022/06/27 10:59:27;;;;;;;6.03;3.02;;;;;;;33.02;29.75;100857.69;1637599;86;20987;-79
2022/06/27 11:02:07;;;;;;;3.35;2.90;;;;;;;33.03;29.92;100844.63;1635724;86;20947;-79
2022/06/27 11:04:36;;;;;;;4.67;2.77;;;;;;;33.16;30.02;100853.03;1638903;86;21034;-79
2022/06/27 11:07:08;;;;;;;4.22;3.08;;;;;;;33.15;29.93;100839.80;1652574;85;20891;-79
2022/06/27 11:09:44;;;;;;;4.35;3.65;;;;;;;33.12;29.87;100840.13;1615905;86;21033;-79
2022/06/27 11:12:15;;;;;;;3.12;2.80;;;;;;;33.03;29.75;100847.31;1659499;85;20951;-79
2022/06/27 11:14:52;;;;;;;2.87;2.67;;;;;;;32.93;29.50;100851.14;1610990;88;20920;-79
2022/06/27 11:17:45;;;;;;;6.70;3.12;;;;;;;32.88;29.85;100842.25;1613054;87;20930;-79
2022/06/27 11:20:18;;;;;;;5.22;3.50;;;;;;;32.90;29.83;100840.25;1621394;85;21507;-79
2022/06/27 11:22:51;;;;;;;6.00;3.00;;;;;;;32.83;29.75;100841.41;1635152;86;21530;-79
2022/06/27 11:25:21;;;;;;;4.90;2.83;;;;;;;32.87;29.94;100837.89;1634721;86;20951;-79
2022/06/27 11:27:55;;;;;;;5.03;2.80;;;;;;;32.89;29.77;100836.73;1640762;85;20974;-79
2022/06/27 11:33:26;;;;;;;3.60;2.92;;;;;;;32.72;29.75;100832.33;1633674;85;20939;-79
2022/06/27 11:35:54;;;;;;;3.58;3.10;;;;;;;32.74;29.87;100831.66;1646644;85;20974;-79
2022/06/27 11:38:31;;;;;;;3.17;2.98;;;;;;;32.82;29.86;100828.17;1643669;85;20967;-79
2022/06/27 11:41:09;;;;;;;5.42;2.90;;;;;;;32.81;29.61;100825.16;1652632;85;20995;-79